Terminal Aerodrome Forecast
Issued by NWS

Home | Current Version | Previous Version | Text Only | Print | Product List | Glossary On
Versions: 1 2 3 4 5 6 7 8 9 10 11 12 13 14 15 16
000
FTUS41 KPBZ 311700
TAFBVI
TAF
KBVI 311740Z 3118/0118 VRB04KT P6SM -RA BKN018 OVC025
     FM312200 VRB05KT 2SM -RA BR BKN012 OVC020
     FM010100 VRB04KT 5SM -RA BR BKN010 OVC025
     FM011300 36010G20KT P6SM VCSH BKN015 BKN025=

USA.gov is the U.S. government's official web portal to all federal, state and local government web resources and services.